createdAt,value
2023-05-09T00:01:11.758Z,15.00
2023-05-09T00:03:39.124Z,15.00
2023-05-09T00:06:07.128Z,15.00
2023-05-09T00:08:33.942Z,15.00
2023-05-09T00:11:02.206Z,15.00
2023-05-09T00:13:29.108Z,15.00
2023-05-09T00:15:57.397Z,15.00
2023-05-09T00:18:24.641Z,15.10
2023-05-09T00:20:51.525Z,14.90
2023-05-09T00:23:18.243Z,14.90
2023-05-09T00:25:44.993Z,15.00
2023-05-09T00:28:12.000Z,14.90
2023-05-09T00:30:38.880Z,14.90
2023-05-09T00:33:06.484Z,14.90
2023-05-09T00:35:33.456Z,14.90
2023-05-09T00:38:00.206Z,14.90
2023-05-09T00:40:27.611Z,14.90
2023-05-09T00:42:58.223Z,14.90
2023-05-09T00:45:25.359Z,14.90
2023-05-09T00:47:52.809Z,14.80
2023-05-09T00:50:19.697Z,14.70
2023-05-09T00:52:46.956Z,14.70
2023-05-09T00:55:15.010Z,14.60
2023-05-09T00:57:42.089Z,14.70
2023-05-09T01:00:16.734Z,14.60
2023-05-09T01:02:46.609Z,14.70
2023-05-09T01:05:14.360Z,14.60
2023-05-09T01:08:22.984Z,14.50
2023-05-09T01:11:06.456Z,14.60
2023-05-09T01:14:12.169Z,14.50
2023-05-09T01:16:43.626Z,14.40
2023-05-09T01:20:02.225Z,14.50
2023-05-09T01:22:32.709Z,14.50
2023-05-09T01:25:27.269Z,14.40
2023-05-09T01:28:07.184Z,14.50
2023-05-09T01:30:35.957Z,14.40
2023-05-09T01:33:07.056Z,14.20
2023-05-09T01:35:37.618Z,14.20
2023-05-09T01:38:10.195Z,14.10
2023-05-09T01:40:39.942Z,14.10
2023-05-09T01:43:09.933Z,14.10
2023-05-09T01:45:39.153Z,14.20
2023-05-09T01:48:08.574Z,14.10
2023-05-09T01:50:36.139Z,14.00
2023-05-09T01:53:05.802Z,14.00
2023-05-09T01:55:35.626Z,14.00
2023-05-09T01:58:04.295Z,13.90
2023-05-09T02:00:33.950Z,14.00
2023-05-09T02:03:03.822Z,13.90
2023-05-09T02:05:32.298Z,14.00
2023-05-09T02:07:59.675Z,13.80
2023-05-09T02:10:30.684Z,13.60
2023-05-09T02:12:57.918Z,13.70
2023-05-09T02:15:25.837Z,13.70
2023-05-09T02:17:53.596Z,13.60
2023-05-09T02:20:20.502Z,13.50
2023-05-09T02:22:47.734Z,13.60
2023-05-09T02:25:18.539Z,13.70
2023-05-09T02:27:46.718Z,13.70
2023-05-09T02:30:25.130Z,13.70
2023-05-09T02:33:03.428Z,13.70
2023-05-09T02:35:30.436Z,13.80
2023-05-09T02:37:59.503Z,13.90
2023-05-09T02:40:28.116Z,13.80
2023-05-09T02:42:55.406Z,13.80
2023-05-09T02:45:22.360Z,13.70
2023-05-09T02:47:49.238Z,13.70
2023-05-09T02:50:16.103Z,13.70
2023-05-09T02:52:43.412Z,13.50
2023-05-09T02:55:11.001Z,13.60
2023-05-09T02:57:40.191Z,13.70
2023-05-09T03:00:09.968Z,13.70
2023-05-09T03:02:37.880Z,13.70
2023-05-09T03:05:08.613Z,13.50
2023-05-09T03:07:36.296Z,13.60
2023-05-09T03:10:03.620Z,13.60
2023-05-09T03:12:31.659Z,13.60
2023-05-09T03:14:59.045Z,13.70
2023-05-09T03:17:26.061Z,13.50
2023-05-09T03:19:53.018Z,13.60
2023-05-09T03:22:20.799Z,13.70
2023-05-09T03:24:55.244Z,13.70
2023-05-09T03:27:22.477Z,13.60
2023-05-09T03:29:50.544Z,13.60
2023-05-09T03:32:19.282Z,13.70
2023-05-09T03:34:46.688Z,13.70
2023-05-09T03:37:13.523Z,13.70
2023-05-09T03:39:41.473Z,13.60
2023-05-09T03:42:08.302Z,13.60
2023-05-09T03:44:35.342Z,13.60
2023-05-09T03:47:02.208Z,13.70
2023-05-09T03:49:36.228Z,13.60
2023-05-09T03:52:03.751Z,13.60
2023-05-09T03:54:30.820Z,13.60
2023-05-09T03:56:57.644Z,13.50
2023-05-09T03:59:24.445Z,13.50
2023-05-09T04:01:51.586Z,13.50
2023-05-09T04:04:19.201Z,13.40
2023-05-09T04:06:47.059Z,13.50
2023-05-09T04:09:16.263Z,13.60
2023-05-09T04:11:43.082Z,13.60
2023-05-09T04:14:12.349Z,13.60
2023-05-09T04:16:39.940Z,13.60
2023-05-09T04:19:07.340Z,13.60
2023-05-09T04:21:35.531Z,13.60
2023-05-09T04:24:03.930Z,13.70
2023-05-09T04:26:39.208Z,13.70
2023-05-09T04:29:09.053Z,13.70
2023-05-09T04:31:36.431Z,13.70
2023-05-09T04:34:04.171Z,13.70
2023-05-09T04:36:35.019Z,13.70
2023-05-09T04:39:02.244Z,13.60
2023-05-09T04:41:29.867Z,13.70
2023-05-09T04:43:56.803Z,13.60
2023-05-09T04:46:26.003Z,13.50
2023-05-09T04:48:53.926Z,13.50
2023-05-09T04:51:20.806Z,13.40
2023-05-09T04:53:47.792Z,13.50
2023-05-09T04:56:17.009Z,13.50
2023-05-09T04:58:45.949Z,13.60
2023-05-09T05:01:12.958Z,13.60
2023-05-09T05:03:40.149Z,13.60
2023-05-09T05:06:07.392Z,13.60
2023-05-09T05:08:35.704Z,13.60
2023-05-09T05:11:02.814Z,13.60
2023-05-09T05:13:29.860Z,13.80
2023-05-09T05:15:59.974Z,13.80
2023-05-09T05:18:26.872Z,14.10
2023-05-09T05:20:54.331Z,14.00
2023-05-09T05:23:21.402Z,14.00
2023-05-09T05:25:51.972Z,14.00
2023-05-09T05:28:19.394Z,14.10
2023-05-09T05:30:46.385Z,14.00
2023-05-09T05:33:13.480Z,14.10
2023-05-09T05:35:40.841Z,14.40
2023-05-09T05:38:07.680Z,14.50
2023-05-09T05:40:35.240Z,14.50
2023-05-09T05:43:04.191Z,14.60
2023-05-09T05:45:33.220Z,14.40
2023-05-09T05:48:02.826Z,14.70
2023-05-09T05:50:31.702Z,14.70
2023-05-09T05:52:58.812Z,14.70
2023-05-09T05:55:25.714Z,14.80
2023-05-09T05:57:52.680Z,14.80
2023-05-09T06:00:20.776Z,14.60
2023-05-09T06:02:54.288Z,14.60
2023-05-09T06:05:44.711Z,14.70
2023-05-09T06:08:12.069Z,14.70
2023-05-09T06:10:38.851Z,14.90
2023-05-09T06:13:05.798Z,14.90
2023-05-09T06:15:33.354Z,14.90
2023-05-09T06:18:00.394Z,14.90
2023-05-09T06:20:27.967Z,15.00
2023-05-09T06:22:54.803Z,14.90
2023-05-09T06:25:21.615Z,14.90
2023-05-09T06:27:48.432Z,14.90
2023-05-09T06:30:25.754Z,14.80
2023-05-09T06:32:54.960Z,14.90
2023-05-09T06:35:23.016Z,14.90
2023-05-09T06:37:50.388Z,14.90
2023-05-09T06:40:17.394Z,15.00
2023-05-09T06:42:44.826Z,15.00
2023-05-09T06:45:12.048Z,15.10
2023-05-09T06:47:38.904Z,15.20
2023-05-09T06:50:06.256Z,15.20
2023-05-09T06:52:33.116Z,15.30
2023-05-09T06:54:59.827Z,15.40
2023-05-09T06:57:26.686Z,15.40
2023-05-09T06:59:53.402Z,15.40
2023-05-09T07:02:20.320Z,15.40
2023-05-09T07:04:47.184Z,15.60
2023-05-09T07:07:14.297Z,15.70
2023-05-09T07:09:41.117Z,15.80
2023-05-09T07:12:08.333Z,15.80
2023-05-09T07:14:35.139Z,15.90
2023-05-09T07:17:18.073Z,16.00
2023-05-09T07:19:48.577Z,16.10
2023-05-09T07:22:15.592Z,16.00
2023-05-09T07:24:44.368Z,15.90
2023-05-09T07:27:11.430Z,16.10
2023-05-09T07:29:38.253Z,16.20
2023-05-09T07:32:05.296Z,16.30
2023-05-09T07:34:32.469Z,16.30
2023-05-09T07:36:59.395Z,16.30
2023-05-09T07:39:26.176Z,16.30
2023-05-09T07:41:52.874Z,16.30
2023-05-09T07:44:19.645Z,16.40
2023-05-09T07:46:46.465Z,16.50
2023-05-09T07:49:13.199Z,16.50
2023-05-09T07:51:39.988Z,16.50
2023-05-09T07:54:06.934Z,16.60
2023-05-09T07:56:34.046Z,16.60
2023-05-09T07:59:00.932Z,16.70
2023-05-09T08:01:27.691Z,16.90
2023-05-09T08:03:54.834Z,16.90
2023-05-09T08:06:22.037Z,17.00
2023-05-09T08:08:48.812Z,16.80
2023-05-09T08:11:15.674Z,16.80
2023-05-09T08:13:42.375Z,16.70
2023-05-09T08:16:09.215Z,16.80
2023-05-09T08:18:36.009Z,16.70
2023-05-09T08:21:02.921Z,16.90
2023-05-09T08:23:30.450Z,17.00
2023-05-09T08:25:57.272Z,17.20
2023-05-09T08:28:24.472Z,17.30
2023-05-09T08:30:51.925Z,17.40
2023-05-09T08:33:19.268Z,17.50
2023-05-09T08:35:50.383Z,17.60
2023-05-09T08:38:17.727Z,17.70
2023-05-09T08:40:44.640Z,17.50
2023-05-09T08:43:12.868Z,17.80
2023-05-09T08:45:47.456Z,18.00
2023-05-09T08:48:16.283Z,17.90
2023-05-09T08:50:44.724Z,17.90
2023-05-09T08:53:14.641Z,18.00
2023-05-09T08:55:41.565Z,18.00
2023-05-09T08:58:09.425Z,18.10
2023-05-09T09:00:38.693Z,17.90
2023-05-09T09:03:07.678Z,17.90
2023-05-09T09:05:41.678Z,17.90
2023-05-09T09:08:11.138Z,18.20
2023-05-09T09:10:47.386Z,18.20
2023-05-09T09:13:16.808Z,18.40
2023-05-09T09:15:46.041Z,18.50
2023-05-09T09:18:18.279Z,18.50
2023-05-09T09:20:52.122Z,18.70
2023-05-09T09:23:22.577Z,18.80
2023-05-09T09:25:49.477Z,18.90
2023-05-09T09:28:16.281Z,19.00
2023-05-09T09:30:48.452Z,19.10
2023-05-09T09:33:25.058Z,19.20
2023-05-09T09:35:53.598Z,19.30
2023-05-09T09:38:22.449Z,19.50
2023-05-09T09:40:58.907Z,19.70
2023-05-09T09:43:32.472Z,19.60
2023-05-09T09:46:03.813Z,19.80
2023-05-09T09:48:35.626Z,19.80
2023-05-09T09:51:11.420Z,19.90
2023-05-09T09:53:42.600Z,20.00
2023-05-09T09:56:09.950Z,20.20
2023-05-09T09:58:37.205Z,20.20
2023-05-09T10:01:08.692Z,20.10
2023-05-09T10:03:40.531Z,20.00
2023-05-09T10:06:16.010Z,20.40
2023-05-09T10:08:48.950Z,20.40
2023-05-09T10:11:15.979Z,20.60
2023-05-09T10:13:44.584Z,20.30
2023-05-09T10:16:11.944Z,20.30
2023-05-09T10:18:42.130Z,20.20
2023-05-09T10:21:12.118Z,20.30
2023-05-09T10:23:42.499Z,20.40
2023-05-09T10:26:16.098Z,20.20
2023-05-09T10:28:46.602Z,20.20
2023-05-09T10:31:19.168Z,20.10
2023-05-09T10:33:50.481Z,20.20
2023-05-09T10:36:20.757Z,20.40
2023-05-09T10:38:49.164Z,20.30
2023-05-09T10:41:21.911Z,20.20
2023-05-09T10:43:49.229Z,20.30
2023-05-09T10:46:17.423Z,20.80
2023-05-09T10:48:45.238Z,20.80
2023-05-09T10:51:13.070Z,21.00
2023-05-09T10:53:44.633Z,20.90
2023-05-09T10:56:29.172Z,20.90
2023-05-09T10:58:56.504Z,21.20
2023-05-09T11:01:31.981Z,21.30
2023-05-09T11:04:00.236Z,20.90
2023-05-09T11:06:46.140Z,21.10
2023-05-09T11:09:41.436Z,21.10
2023-05-09T11:12:13.221Z,21.00
2023-05-09T11:14:51.732Z,21.40
2023-05-09T11:17:22.032Z,21.50
2023-05-09T11:19:52.022Z,21.70
2023-05-09T11:22:33.008Z,21.70
2023-05-09T11:25:06.171Z,22.00
2023-05-09T11:27:43.552Z,21.70
2023-05-09T11:30:15.812Z,21.80
2023-05-09T11:32:45.636Z,21.90
2023-05-09T11:35:17.557Z,22.00
2023-05-09T11:37:47.045Z,22.00
2023-05-09T11:40:15.713Z,22.00
2023-05-09T11:42:44.893Z,22.10
2023-05-09T11:45:13.703Z,22.10
2023-05-09T11:47:41.185Z,22.00
2023-05-09T11:50:10.171Z,22.00
2023-05-09T11:52:40.513Z,22.10
2023-05-09T11:55:13.367Z,22.30
2023-05-09T11:57:48.031Z,22.20
2023-05-09T12:00:20.571Z,22.30
2023-05-09T12:02:48.164Z,22.40
2023-05-09T12:05:20.226Z,22.30
2023-05-09T12:07:47.430Z,22.20
2023-05-09T12:10:20.500Z,22.50
2023-05-09T12:12:49.139Z,22.60
2023-05-09T12:15:17.667Z,22.60
2023-05-09T12:17:47.670Z,22.60
2023-05-09T12:20:15.826Z,22.50
2023-05-09T12:22:43.666Z,22.60
2023-05-09T12:25:12.196Z,22.30
2023-05-09T12:27:40.687Z,22.50
2023-05-09T12:30:10.644Z,23.00
2023-05-09T12:32:40.211Z,22.50
2023-05-09T12:35:09.533Z,22.60
2023-05-09T12:37:36.503Z,22.50
2023-05-09T12:40:15.427Z,22.20
2023-05-09T12:42:46.347Z,22.40
2023-05-09T12:45:14.402Z,22.70
2023-05-09T12:47:46.046Z,22.70
2023-05-09T12:50:13.512Z,22.60
2023-05-09T12:52:58.465Z,22.90
2023-05-09T12:55:29.424Z,22.80
2023-05-09T12:58:03.607Z,23.00
2023-05-09T13:00:44.553Z,23.10
2023-05-09T13:03:25.871Z,22.60
2023-05-09T13:06:02.548Z,22.40
2023-05-09T13:08:29.764Z,22.70
2023-05-09T13:11:11.945Z,23.00
2023-05-09T13:13:42.897Z,23.00
2023-05-09T13:16:11.482Z,23.30
2023-05-09T13:18:39.832Z,23.40
2023-05-09T13:21:06.835Z,23.40
2023-05-09T13:23:33.735Z,23.50
2023-05-09T13:26:00.583Z,23.60
2023-05-09T13:28:27.365Z,23.80
2023-05-09T13:30:54.175Z,23.70
2023-05-09T13:33:25.980Z,23.90
2023-05-09T13:35:53.689Z,24.00
2023-05-09T13:38:20.584Z,24.00
2023-05-09T13:40:47.347Z,24.10
2023-05-09T13:43:14.447Z,24.20
2023-05-09T13:45:41.339Z,23.80
2023-05-09T13:48:08.253Z,23.70
2023-05-09T13:50:35.097Z,23.90
2023-05-09T13:53:01.919Z,23.80
2023-05-09T13:55:29.626Z,23.50
2023-05-09T13:57:56.711Z,23.60
2023-05-09T14:00:26.507Z,23.50
2023-05-09T14:02:53.681Z,23.80
2023-05-09T14:05:20.639Z,23.90
2023-05-09T14:07:47.609Z,23.60
2023-05-09T14:10:14.542Z,23.50
2023-05-09T14:12:44.369Z,23.80
2023-05-09T14:15:11.470Z,23.90
2023-05-09T14:17:38.711Z,23.90
2023-05-09T14:20:06.700Z,24.00
2023-05-09T14:22:33.484Z,23.80
2023-05-09T14:25:00.252Z,24.00
2023-05-09T14:27:27.655Z,24.00
2023-05-09T14:29:54.493Z,23.90
2023-05-09T14:32:21.414Z,24.20
2023-05-09T14:34:49.679Z,24.20
2023-05-09T14:37:16.878Z,23.70
2023-05-09T14:39:45.279Z,23.80
2023-05-09T14:42:14.114Z,24.00
2023-05-09T14:44:41.874Z,24.10
2023-05-09T14:47:09.940Z,24.20
2023-05-09T14:49:40.128Z,24.20
2023-05-09T14:52:07.067Z,23.90
2023-05-09T14:54:34.864Z,23.80
2023-05-09T14:57:04.446Z,23.70
2023-05-09T14:59:31.280Z,23.90
2023-05-09T15:01:58.062Z,23.80
2023-05-09T15:04:28.280Z,23.90
2023-05-09T15:06:55.281Z,23.70
2023-05-09T15:09:22.613Z,23.60
2023-05-09T15:11:49.515Z,23.60
2023-05-09T15:14:17.091Z,23.60
2023-05-09T15:16:44.226Z,23.50
2023-05-09T15:19:11.709Z,23.20
2023-05-09T15:21:38.581Z,23.10
2023-05-09T15:24:05.837Z,23.20
2023-05-09T15:26:32.723Z,23.10
2023-05-09T15:28:59.592Z,23.10
2023-05-09T15:31:26.571Z,23.30
2023-05-09T15:33:53.419Z,23.50
2023-05-09T15:36:20.550Z,23.30
2023-05-09T15:38:49.664Z,23.30
2023-05-09T15:41:16.996Z,23.40
2023-05-09T15:43:43.857Z,23.30
2023-05-09T15:46:10.814Z,23.40
2023-05-09T15:48:37.737Z,23.40
2023-05-09T15:51:04.822Z,23.30
2023-05-09T15:53:31.847Z,23.20
2023-05-09T15:55:58.699Z,23.20
2023-05-09T15:58:25.499Z,23.30
2023-05-09T16:00:52.255Z,23.10
2023-05-09T16:03:19.638Z,23.10
2023-05-09T16:05:46.677Z,23.00
2023-05-09T16:08:13.608Z,22.90
2023-05-09T16:10:40.864Z,22.70
2023-05-09T16:13:08.025Z,22.60
2023-05-09T16:15:35.153Z,22.50
2023-05-09T16:18:02.094Z,22.50
2023-05-09T16:20:28.917Z,22.60
2023-05-09T16:22:55.723Z,22.50
2023-05-09T16:25:22.744Z,22.60
2023-05-09T16:27:49.603Z,22.50
2023-05-09T16:30:16.780Z,22.60
2023-05-09T16:32:44.212Z,22.50
2023-05-09T16:35:11.007Z,22.40
2023-05-09T16:37:37.959Z,22.40
2023-05-09T16:40:05.727Z,22.20
2023-05-09T16:42:32.563Z,22.30
2023-05-09T16:44:59.360Z,22.30
2023-05-09T16:47:26.543Z,22.10
2023-05-09T16:49:53.249Z,22.10
2023-05-09T16:52:20.430Z,22.10
2023-05-09T16:54:47.227Z,22.10
2023-05-09T16:57:14.015Z,22.20
2023-05-09T16:59:40.883Z,22.30
2023-05-09T17:02:08.341Z,22.20
2023-05-09T17:04:37.522Z,22.20
2023-05-09T17:07:04.822Z,22.10
2023-05-09T17:09:32.187Z,22.20
2023-05-09T17:11:59.123Z,22.10
2023-05-09T17:14:26.878Z,22.10
2023-05-09T17:16:54.291Z,22.00
2023-05-09T17:19:23.475Z,22.10
2023-05-09T17:21:50.693Z,22.10
2023-05-09T17:24:17.938Z,22.00
2023-05-09T17:26:44.867Z,22.00
2023-05-09T17:29:12.318Z,22.00
2023-05-09T17:31:39.380Z,21.80
2023-05-09T17:34:06.217Z,21.80
2023-05-09T17:36:33.715Z,21.80
2023-05-09T17:39:00.927Z,21.80
2023-05-09T17:41:27.879Z,21.80
2023-05-09T17:43:57.275Z,21.60
2023-05-09T17:46:24.542Z,21.60
2023-05-09T17:48:51.682Z,21.60
2023-05-09T17:51:18.481Z,21.60
2023-05-09T17:53:45.261Z,21.50
2023-05-09T17:56:12.096Z,21.40
2023-05-09T17:58:38.838Z,21.40
2023-05-09T18:01:05.743Z,21.30
2023-05-09T18:03:33.016Z,21.30
2023-05-09T18:06:00.361Z,21.10
2023-05-09T18:08:27.529Z,20.90
2023-05-09T18:10:57.491Z,20.90
2023-05-09T18:13:24.405Z,20.70
2023-05-09T18:15:54.012Z,20.70
2023-05-09T18:18:20.908Z,20.70
2023-05-09T18:20:48.197Z,20.70
2023-05-09T18:23:15.512Z,20.60
2023-05-09T18:25:42.440Z,20.60
2023-05-09T18:28:09.934Z,20.50
2023-05-09T18:30:37.659Z,20.70
2023-05-09T18:33:04.472Z,20.70
2023-05-09T18:35:31.664Z,20.70
2023-05-09T18:37:58.391Z,20.50
2023-05-09T18:40:25.277Z,20.50
2023-05-09T18:42:52.000Z,20.40
2023-05-09T18:45:18.793Z,20.50
2023-05-09T18:47:45.583Z,20.60
2023-05-09T18:50:13.703Z,20.60
2023-05-09T18:52:40.645Z,20.60
2023-05-09T18:55:07.984Z,20.50
2023-05-09T18:57:34.839Z,20.50
2023-05-09T19:00:02.117Z,20.60
2023-05-09T19:02:30.197Z,20.30
2023-05-09T19:04:57.430Z,20.30
2023-05-09T19:07:24.162Z,20.20
2023-05-09T19:09:51.679Z,20.20
2023-05-09T19:12:19.119Z,20.10
2023-05-09T19:14:46.140Z,19.80
2023-05-09T19:17:12.993Z,19.70
2023-05-09T19:19:39.801Z,19.90
2023-05-09T19:22:06.981Z,19.80
2023-05-09T19:24:33.728Z,19.80
2023-05-09T19:27:00.787Z,19.70
2023-05-09T19:29:27.551Z,19.70
2023-05-09T19:31:54.541Z,19.70
2023-05-09T19:34:21.702Z,19.70
2023-05-09T19:36:49.041Z,19.60
2023-05-09T19:39:15.745Z,19.70
2023-05-09T19:41:42.621Z,19.60
2023-05-09T19:44:09.442Z,19.70
2023-05-09T19:46:38.290Z,19.50
2023-05-09T19:49:06.172Z,19.30
2023-05-09T19:51:33.071Z,18.80
2023-05-09T19:53:59.883Z,18.70
2023-05-09T19:56:27.301Z,18.40
2023-05-09T19:58:54.843Z,17.90
2023-05-09T20:01:21.943Z,17.80
2023-05-09T20:03:52.462Z,17.60
2023-05-09T20:06:19.458Z,17.50
2023-05-09T20:08:47.024Z,17.50
2023-05-09T20:11:14.731Z,17.50
2023-05-09T20:13:42.819Z,17.10
2023-05-09T20:16:09.660Z,17.00
2023-05-09T20:18:36.880Z,16.90
2023-05-09T20:21:03.840Z,17.10
2023-05-09T20:23:31.221Z,17.00
2023-05-09T20:25:58.125Z,17.00
2023-05-09T20:28:25.228Z,16.90
2023-05-09T20:30:51.986Z,17.20
2023-05-09T20:33:19.318Z,17.20
2023-05-09T20:35:46.790Z,17.10
2023-05-09T20:38:13.621Z,17.10
2023-05-09T20:40:41.338Z,17.00
2023-05-09T20:43:08.717Z,17.10
2023-05-09T20:45:37.403Z,17.20
2023-05-09T20:48:05.728Z,17.20
2023-05-09T20:50:32.645Z,17.30
2023-05-09T20:52:59.474Z,17.30
2023-05-09T20:55:26.296Z,17.40
2023-05-09T20:57:53.265Z,17.20
2023-05-09T21:00:20.149Z,17.00
2023-05-09T21:02:47.127Z,17.00
2023-05-09T21:05:14.003Z,17.10
2023-05-09T21:07:40.800Z,17.10
2023-05-09T21:10:10.145Z,17.10
2023-05-09T21:12:37.144Z,17.20
2023-05-09T21:15:04.296Z,17.20
2023-05-09T21:17:31.307Z,17.20
2023-05-09T21:19:58.246Z,17.00
2023-05-09T21:22:25.014Z,16.90
2023-05-09T21:24:51.880Z,17.00
2023-05-09T21:27:18.742Z,17.00
2023-05-09T21:29:49.116Z,17.00
2023-05-09T21:32:19.312Z,16.90
2023-05-09T21:34:47.963Z,16.80
2023-05-09T21:37:15.165Z,16.90
2023-05-09T21:39:41.951Z,16.90
2023-05-09T21:42:08.963Z,16.80
2023-05-09T21:44:35.888Z,16.90
2023-05-09T21:47:02.850Z,16.80
2023-05-09T21:49:29.680Z,16.70
2023-05-09T21:51:56.429Z,16.70
2023-05-09T21:54:23.351Z,16.80
2023-05-09T21:56:50.256Z,16.60
2023-05-09T21:59:20.812Z,16.50
2023-05-09T22:01:47.960Z,16.60
2023-05-09T22:04:15.753Z,16.60
2023-05-09T22:06:42.815Z,16.50
2023-05-09T22:09:10.465Z,16.60
2023-05-09T22:11:37.727Z,16.60
2023-05-09T22:14:04.588Z,16.50
2023-05-09T22:16:31.596Z,16.60
2023-05-09T22:18:58.716Z,16.60
2023-05-09T22:21:25.524Z,16.80
2023-05-09T22:23:52.337Z,16.80
2023-05-09T22:26:19.152Z,16.90
2023-05-09T22:28:45.905Z,16.60
2023-05-09T22:31:12.829Z,16.60
2023-05-09T22:33:39.874Z,16.50
2023-05-09T22:36:07.157Z,16.60
2023-05-09T22:38:33.991Z,16.50
2023-05-09T22:41:01.045Z,16.60
2023-05-09T22:43:33.853Z,16.60
2023-05-09T22:46:06.057Z,16.60
2023-05-09T22:48:32.926Z,16.50
2023-05-09T22:50:59.868Z,16.30
2023-05-09T22:53:26.685Z,16.30
2023-05-09T22:55:54.747Z,16.10
2023-05-09T22:58:22.736Z,16.20
2023-05-09T23:00:49.575Z,16.30
2023-05-09T23:03:17.406Z,16.30
2023-05-09T23:05:44.286Z,16.30
2023-05-09T23:08:11.037Z,16.40
2023-05-09T23:10:37.924Z,16.20
2023-05-09T23:13:04.897Z,16.20
2023-05-09T23:15:31.845Z,16.30
2023-05-09T23:17:58.722Z,16.40
2023-05-09T23:20:26.185Z,16.20
2023-05-09T23:22:52.919Z,16.30
2023-05-09T23:25:19.691Z,16.10
2023-05-09T23:27:47.107Z,16.30
2023-05-09T23:30:14.331Z,16.30
2023-05-09T23:32:41.677Z,16.20
2023-05-09T23:35:08.765Z,16.10
2023-05-09T23:37:35.625Z,16.20
2023-05-09T23:40:03.838Z,16.30
2023-05-09T23:42:30.861Z,16.10
2023-05-09T23:44:58.013Z,16.10
2023-05-09T23:47:25.680Z,16.10
2023-05-09T23:49:52.472Z,16.00
2023-05-09T23:52:19.230Z,15.90
2023-05-09T23:54:46.429Z,15.90
2023-05-09T23:57:13.185Z,15.90
2023-05-09T23:59:40.049Z,15.80
